createdAt,value
2019-02-01T00:01:52.312Z,33.42
2019-02-01T00:04:18.641Z,33.41
2019-02-01T00:06:44.962Z,33.43
2019-02-01T00:09:11.282Z,33.38
2019-02-01T00:11:37.614Z,33.42
2019-02-01T00:14:03.946Z,33.42
2019-02-01T00:16:30.274Z,33.45
2019-02-01T00:18:56.645Z,33.43
2019-02-01T00:21:22.978Z,33.39
2019-02-01T00:23:49.326Z,33.45
2019-02-01T00:26:15.676Z,33.46
2019-02-01T00:28:42.019Z,33.39
2019-02-01T00:31:08.358Z,33.47
2019-02-01T00:33:34.689Z,33.42
2019-02-01T00:36:01.053Z,33.40
2019-02-01T00:38:30.626Z,33.47
2019-02-01T00:40:57.109Z,33.45
2019-02-01T00:43:23.440Z,33.45
2019-02-01T00:45:49.822Z,33.53
2019-02-01T00:48:16.153Z,33.44
2019-02-01T00:50:42.513Z,33.47
2019-02-01T00:53:08.846Z,33.38
2019-02-01T00:55:35.260Z,33.46
2019-02-01T00:58:01.546Z,33.47
2019-02-01T01:00:27.906Z,33.47
2019-02-01T01:02:54.204Z,33.41
2019-02-01T01:05:20.537Z,33.24
2019-02-01T01:07:49.862Z,33.05
2019-02-01T01:10:13.288Z,33.23
2019-02-01T01:12:39.691Z,33.13
2019-02-01T01:15:06.017Z,33.32
2019-02-01T01:17:32.337Z,33.54
2019-02-01T01:19:58.665Z,33.36
2019-02-01T01:22:25.042Z,33.21
2019-02-01T01:24:51.377Z,33.40
2019-02-01T01:27:17.716Z,33.31
2019-02-01T01:29:44.104Z,33.31
2019-02-01T01:32:10.393Z,33.25
2019-02-01T01:34:36.736Z,32.96
2019-02-01T01:37:03.094Z,33.17
2019-02-01T01:39:29.557Z,33.20
2019-02-01T01:41:55.897Z,33.16
2019-02-01T01:44:22.325Z,33.02
2019-02-01T01:46:48.656Z,33.12
2019-02-01T01:49:14.986Z,33.03
2019-02-01T01:51:41.404Z,33.03
2019-02-01T01:54:07.746Z,33.02
2019-02-01T01:56:34.069Z,32.91
2019-02-01T01:59:00.417Z,32.69
2019-02-01T02:01:26.753Z,32.87
2019-02-01T02:03:53.101Z,32.80
2019-02-01T02:06:19.429Z,32.67
2019-02-01T02:08:45.798Z,32.58
2019-02-01T02:11:12.253Z,32.36
2019-02-01T02:13:38.649Z,32.11
2019-02-01T02:16:04.970Z,32.21
2019-02-01T02:18:31.333Z,32.10
2019-02-01T02:20:57.679Z,32.23
2019-02-01T02:23:24.014Z,32.24
2019-02-01T02:25:50.346Z,32.17
2019-02-01T02:28:16.754Z,32.17
2019-02-01T02:30:43.201Z,32.05
2019-02-01T02:33:09.597Z,31.90
2019-02-01T02:35:35.942Z,31.86
2019-02-01T02:38:02.298Z,31.69
2019-02-01T02:40:28.632Z,31.67
2019-02-01T02:42:54.969Z,31.61
2019-02-01T02:45:21.301Z,31.53
2019-02-01T02:47:47.648Z,31.54
2019-02-01T02:50:13.978Z,31.52
2019-02-01T02:52:40.300Z,31.41
2019-02-01T02:55:06.647Z,31.32
2019-02-01T02:57:32.997Z,31.31
2019-02-01T02:59:59.318Z,31.29
2019-02-01T03:02:25.753Z,31.29
2019-02-01T03:04:52.130Z,31.30
2019-02-01T03:07:18.463Z,31.18
2019-02-01T03:09:44.843Z,31.17
2019-02-01T03:12:11.141Z,31.25
2019-02-01T03:14:37.469Z,31.09
2019-02-01T03:17:03.840Z,31.02
2019-02-01T03:19:30.189Z,31.04
2019-02-01T03:21:56.510Z,31.00
2019-02-01T03:24:22.995Z,30.87
2019-02-01T03:26:49.160Z,30.93
2019-02-01T03:29:15.522Z,30.94
2019-02-01T03:31:41.863Z,30.87
2019-02-01T03:34:08.200Z,30.75
2019-02-01T03:36:34.542Z,30.70
2019-02-01T03:39:00.950Z,30.68
2019-02-01T03:41:27.206Z,30.65
2019-02-01T03:43:53.535Z,30.60
2019-02-01T03:46:19.888Z,30.58
2019-02-01T03:48:46.224Z,30.60
2019-02-01T03:51:12.556Z,30.62
2019-02-01T03:53:38.878Z,30.46
2019-02-01T03:56:05.208Z,30.54
2019-02-01T03:58:31.541Z,30.43
2019-02-01T04:00:57.881Z,30.46
2019-02-01T04:03:24.210Z,30.39
2019-02-01T04:05:50.571Z,30.30
2019-02-01T04:08:17.028Z,30.20
2019-02-01T04:10:43.462Z,30.19
2019-02-01T04:13:09.802Z,30.24
2019-02-01T04:15:36.130Z,30.18
2019-02-01T04:18:02.533Z,30.14
2019-02-01T04:20:28.885Z,30.16
2019-02-01T04:22:55.217Z,30.26
2019-02-01T04:25:21.545Z,30.18
2019-02-01T04:27:47.934Z,30.23
2019-02-01T04:30:14.315Z,30.62
2019-02-01T04:32:40.723Z,30.61
2019-02-01T04:35:07.050Z,30.37
2019-02-01T04:37:33.516Z,30.33
2019-02-01T04:39:59.885Z,30.25
2019-02-01T04:42:26.267Z,30.17
2019-02-01T04:44:52.597Z,30.14
2019-02-01T04:47:18.932Z,29.92
2019-02-01T04:49:45.285Z,30.00
2019-02-01T04:52:11.666Z,29.75
2019-02-01T04:54:38.127Z,29.80
2019-02-01T04:57:04.472Z,29.87
2019-02-01T04:59:30.799Z,29.71
2019-02-01T05:01:57.184Z,29.76
2019-02-01T05:04:23.508Z,29.81
2019-02-01T05:06:49.844Z,29.74
2019-02-01T05:09:16.207Z,29.80
2019-02-01T05:11:42.540Z,29.78
2019-02-01T05:14:08.912Z,29.79
2019-02-01T05:16:35.334Z,29.76
2019-02-01T05:19:01.647Z,29.82
2019-02-01T05:21:27.989Z,29.86
2019-02-01T05:23:54.333Z,29.83
2019-02-01T05:26:20.706Z,29.87
2019-02-01T05:28:47.064Z,29.85
2019-02-01T05:31:13.388Z,29.89
2019-02-01T05:33:39.713Z,29.80
2019-02-01T05:36:06.051Z,29.80
2019-02-01T05:38:32.374Z,29.92
2019-02-01T05:40:58.725Z,29.85
2019-02-01T05:43:25.096Z,29.78
2019-02-01T05:45:51.476Z,29.73
2019-02-01T05:48:17.849Z,29.68
2019-02-01T05:50:44.217Z,29.60
2019-02-01T05:53:10.513Z,29.61
2019-02-01T05:55:36.915Z,29.57
2019-02-01T05:58:03.234Z,29.66
2019-02-01T06:00:32.628Z,29.79
2019-02-01T06:02:55.983Z,29.74
2019-02-01T06:05:22.295Z,29.72
2019-02-01T06:07:48.646Z,29.67
2019-02-01T06:10:14.980Z,29.75
2019-02-01T06:12:41.331Z,29.67
2019-02-01T06:15:08.075Z,29.48
2019-02-01T06:17:34.424Z,29.48
2019-02-01T06:20:00.798Z,29.78
2019-02-01T06:22:27.100Z,29.59
2019-02-01T06:24:53.598Z,30.57
2019-02-01T06:27:19.922Z,29.57
2019-02-01T06:29:46.275Z,29.56
2019-02-01T06:32:12.603Z,29.57
2019-02-01T06:34:39.077Z,29.98
2019-02-01T06:37:05.322Z,29.96
2019-02-01T06:39:31.662Z,29.60
2019-02-01T06:41:58.009Z,29.95
2019-02-01T06:44:24.389Z,29.75
2019-02-01T06:46:50.748Z,29.65
2019-02-01T06:49:17.104Z,29.61
2019-02-01T06:51:43.489Z,29.94
2019-02-01T06:54:09.848Z,29.86
2019-02-01T06:56:36.225Z,29.62
2019-02-01T06:59:02.564Z,29.64
2019-02-01T07:01:28.942Z,29.47
2019-02-01T07:03:55.288Z,29.31
2019-02-01T07:06:21.647Z,29.10
2019-02-01T07:08:48.006Z,29.12
2019-02-01T07:11:14.390Z,29.40
2019-02-01T07:13:40.733Z,29.27
2019-02-01T07:16:07.170Z,29.04
2019-02-01T07:18:33.571Z,28.96
2019-02-01T07:21:04.086Z,28.90
2019-02-01T07:23:26.469Z,28.95
2019-02-01T07:25:53.356Z,29.06
2019-02-01T07:28:19.702Z,29.13
2019-02-01T07:30:46.075Z,29.31
2019-02-01T07:33:12.410Z,29.07
2019-02-01T07:35:38.856Z,28.98
2019-02-01T07:38:05.166Z,28.63
2019-02-01T07:40:31.500Z,29.47
2019-02-01T07:42:58.012Z,29.35
2019-02-01T07:45:24.748Z,29.09
2019-02-01T07:47:51.306Z,29.66
2019-02-01T07:50:24.146Z,29.42
2019-02-01T07:52:44.159Z,29.63
2019-02-01T07:55:10.527Z,29.39
2019-02-01T07:57:36.825Z,30.77
2019-02-01T08:00:03.199Z,30.07
2019-02-01T08:02:29.619Z,29.99
2019-02-01T08:04:55.921Z,30.07
2019-02-01T08:07:22.323Z,30.37
2019-02-01T08:09:48.726Z,30.39
2019-02-01T08:12:15.223Z,30.87
2019-02-01T08:14:41.628Z,30.00
2019-02-01T08:17:07.995Z,30.04
2019-02-01T08:19:34.338Z,30.10
2019-02-01T08:22:00.965Z,29.95
2019-02-01T08:24:27.256Z,29.96
2019-02-01T08:26:53.610Z,29.73
2019-02-01T08:29:20.019Z,29.63
2019-02-01T08:31:46.361Z,29.61
2019-02-01T08:34:12.805Z,29.96
2019-02-01T08:36:39.156Z,29.59
2019-02-01T08:39:05.508Z,29.63
2019-02-01T08:41:31.880Z,29.31
2019-02-01T08:43:58.228Z,29.62
2019-02-01T08:46:24.579Z,29.50
2019-02-01T08:48:53.135Z,29.38
2019-02-01T08:51:19.466Z,29.08
2019-02-01T08:53:45.860Z,29.52
2019-02-01T08:56:12.213Z,29.53
2019-02-01T08:58:38.706Z,29.48
2019-02-01T09:01:05.316Z,29.76
2019-02-01T09:03:31.736Z,29.79
2019-02-01T09:05:58.119Z,29.71
2019-02-01T09:08:24.600Z,29.58
2019-02-01T09:10:51.048Z,29.68
2019-02-01T09:13:17.477Z,29.57
2019-02-01T09:15:44.006Z,29.44
2019-02-01T09:18:10.413Z,29.53
2019-02-01T09:20:36.880Z,29.55
2019-02-01T09:23:03.244Z,29.52
2019-02-01T09:25:29.737Z,29.69
2019-02-01T09:27:56.064Z,29.65
2019-02-01T09:30:22.414Z,29.79
2019-02-01T09:32:48.778Z,29.52
2019-02-01T09:35:16.387Z,29.56
2019-02-01T09:37:43.757Z,29.52
2019-02-01T09:40:08.996Z,29.54
2019-02-01T09:42:35.479Z,29.44
2019-02-01T09:45:01.820Z,29.46
2019-02-01T09:47:28.233Z,29.21
2019-02-01T09:49:54.572Z,29.39
2019-02-01T09:52:20.903Z,29.17
2019-02-01T09:54:47.246Z,29.43
2019-02-01T09:57:13.590Z,29.29
2019-02-01T09:59:39.917Z,29.34
2019-02-01T10:02:06.249Z,29.29
2019-02-01T10:04:32.632Z,29.19
2019-02-01T10:06:58.989Z,29.12
2019-02-01T10:09:25.362Z,29.45
2019-02-01T10:11:51.754Z,29.03
2019-02-01T10:14:18.084Z,28.95
2019-02-01T10:16:44.481Z,29.00
2019-02-01T10:19:10.848Z,29.09
2019-02-01T10:21:37.236Z,29.41
2019-02-01T10:24:03.564Z,28.95
2019-02-01T10:26:29.890Z,28.85
2019-02-01T10:28:56.222Z,28.79
2019-02-01T10:31:22.600Z,29.04
2019-02-01T10:33:48.935Z,28.80
2019-02-01T10:36:15.278Z,28.67
2019-02-01T10:38:41.809Z,28.60
2019-02-01T10:41:08.155Z,28.70
2019-02-01T10:43:34.583Z,28.87
2019-02-01T10:46:01.107Z,28.93
2019-02-01T10:48:27.504Z,29.08
2019-02-01T10:50:53.857Z,29.27
2019-02-01T10:53:20.198Z,28.84
2019-02-01T10:55:46.570Z,29.00
2019-02-01T10:58:12.979Z,29.16
2019-02-01T11:00:42.192Z,28.99
2019-02-01T11:03:08.591Z,28.94
2019-02-01T11:05:34.957Z,28.91
2019-02-01T11:08:01.333Z,29.33
2019-02-01T11:10:27.733Z,29.25
2019-02-01T11:12:54.274Z,29.08
2019-02-01T11:15:20.660Z,29.02
2019-02-01T11:17:47.152Z,28.74
2019-02-01T11:20:14.427Z,28.76
2019-02-01T11:22:40.827Z,28.68
2019-02-01T11:25:07.183Z,28.94
2019-02-01T11:27:33.571Z,28.58
2019-02-01T11:29:59.968Z,28.64
2019-02-01T11:32:26.333Z,28.58
2019-02-01T11:34:52.662Z,28.71
2019-02-01T11:37:19.035Z,28.66
2019-02-01T11:39:47.172Z,28.67
2019-02-01T11:42:11.902Z,28.77
2019-02-01T11:44:38.368Z,28.87
2019-02-01T11:47:04.883Z,28.99
2019-02-01T11:49:31.446Z,29.08
2019-02-01T11:51:59.455Z,28.88
2019-02-01T11:54:25.848Z,28.92
2019-02-01T11:56:52.196Z,28.96
2019-02-01T11:59:18.534Z,29.02
2019-02-01T12:01:44.916Z,29.16
2019-02-01T12:04:11.294Z,29.05
2019-02-01T12:06:37.621Z,29.12
2019-02-01T12:09:03.954Z,29.02
2019-02-01T12:11:30.344Z,29.34
2019-02-01T12:13:56.790Z,29.15
2019-02-01T12:16:23.200Z,29.13
2019-02-01T12:18:49.549Z,29.19
2019-02-01T12:21:15.891Z,29.57
2019-02-01T12:23:42.674Z,29.13
2019-02-01T12:26:09.153Z,29.13
2019-02-01T12:28:35.618Z,29.28
2019-02-01T12:31:01.983Z,29.34
2019-02-01T12:33:28.382Z,29.44
2019-02-01T12:35:54.814Z,29.42
2019-02-01T12:38:21.227Z,29.42
2019-02-01T12:40:47.597Z,29.43
2019-02-01T12:43:13.952Z,29.40
2019-02-01T12:45:40.297Z,29.33
2019-02-01T12:48:06.682Z,29.73
2019-02-01T12:50:33.028Z,29.98
2019-02-01T12:53:10.889Z,29.47
2019-02-01T12:55:25.798Z,29.49
2019-02-01T12:57:52.283Z,29.84
2019-02-01T13:00:18.704Z,29.67
2019-02-01T13:02:45.117Z,30.07
2019-02-01T13:05:11.607Z,30.15
2019-02-01T13:07:38.002Z,30.14
2019-02-01T13:10:04.505Z,30.37
2019-02-01T13:12:30.904Z,29.63
2019-02-01T13:14:57.277Z,29.53
2019-02-01T13:17:23.614Z,29.99
2019-02-01T13:19:49.946Z,29.69
2019-02-01T13:22:16.286Z,30.51
2019-02-01T13:24:45.272Z,29.96
2019-02-01T13:27:09.184Z,30.20
2019-02-01T13:29:35.586Z,29.57
2019-02-01T13:32:02.007Z,29.51
2019-02-01T13:34:28.461Z,29.36
2019-02-01T13:36:54.792Z,29.48
2019-02-01T13:39:22.228Z,29.34
2019-02-01T13:41:48.600Z,29.26
2019-02-01T13:44:15.029Z,29.56
2019-02-01T13:46:41.482Z,29.38
2019-02-01T13:49:07.880Z,29.38
2019-02-01T13:51:34.262Z,29.43
2019-02-01T13:54:00.610Z,29.29
2019-02-01T13:56:27.028Z,29.08
2019-02-01T13:58:53.641Z,29.23
2019-02-01T14:01:20.060Z,29.14
2019-02-01T14:03:46.498Z,29.83
2019-02-01T14:06:13.005Z,29.69
2019-02-01T14:08:39.366Z,29.59
2019-02-01T14:11:05.734Z,29.28
2019-02-01T14:13:32.075Z,29.19
2019-02-01T14:15:58.422Z,29.25
2019-02-01T14:18:24.812Z,29.89
2019-02-01T14:20:51.178Z,30.13
2019-02-01T14:23:17.558Z,30.50
2019-02-01T14:25:43.945Z,30.39
2019-02-01T14:28:10.274Z,29.37
2019-02-01T14:30:36.623Z,29.52
2019-02-01T14:33:03.050Z,29.72
2019-02-01T14:35:29.426Z,29.21
2019-02-01T14:37:55.811Z,29.74
2019-02-01T14:40:22.218Z,29.41
2019-02-01T14:42:48.517Z,29.16
2019-02-01T14:45:14.862Z,29.26
2019-02-01T14:47:41.307Z,29.52
2019-02-01T14:50:07.522Z,29.69
2019-02-01T14:52:33.852Z,29.22
2019-02-01T14:55:00.201Z,29.62
2019-02-01T14:57:26.559Z,29.65
2019-02-01T14:59:52.886Z,29.19
2019-02-01T15:02:19.254Z,29.49
2019-02-01T15:04:45.605Z,29.37
2019-02-01T15:07:12.017Z,29.16
2019-02-01T15:09:38.357Z,29.42
2019-02-01T15:12:04.700Z,29.51
2019-02-01T15:14:31.081Z,29.42
2019-02-01T15:16:57.473Z,29.46
2019-02-01T15:19:25.069Z,29.35
2019-02-01T15:21:51.417Z,29.61
2019-02-01T15:24:17.774Z,29.21
2019-02-01T15:26:44.253Z,29.50
2019-02-01T15:29:10.673Z,29.50
2019-02-01T15:31:37.078Z,29.30
2019-02-01T15:34:03.536Z,29.47
2019-02-01T15:36:29.882Z,29.48
2019-02-01T15:38:56.318Z,29.26
2019-02-01T15:41:22.685Z,29.43
2019-02-01T15:43:49.197Z,29.33
2019-02-01T15:46:15.459Z,29.77
2019-02-01T15:48:41.940Z,29.72
2019-02-01T15:51:08.287Z,29.17
2019-02-01T15:53:34.671Z,29.64
2019-02-01T15:56:01.011Z,29.67
2019-02-01T15:58:27.355Z,29.14
2019-02-01T16:00:53.735Z,29.68
2019-02-01T16:03:20.132Z,29.34
2019-02-01T16:05:46.461Z,29.34
2019-02-01T16:08:12.808Z,29.07
2019-02-01T16:10:39.149Z,29.37
2019-02-01T16:13:05.483Z,29.45
2019-02-01T16:15:31.807Z,29.71
2019-02-01T16:17:58.166Z,29.10
2019-02-01T16:20:24.495Z,28.86
2019-02-01T16:22:50.906Z,29.34
2019-02-01T16:25:17.308Z,29.36
2019-02-01T16:27:43.636Z,29.32
2019-02-01T16:30:09.970Z,29.48
2019-02-01T16:32:36.298Z,29.75
2019-02-01T16:35:02.654Z,29.43
2019-02-01T16:37:28.982Z,30.12
2019-02-01T16:39:55.379Z,29.85
2019-02-01T16:42:21.714Z,29.54
2019-02-01T16:44:48.038Z,29.22
2019-02-01T16:47:14.370Z,29.34
2019-02-01T16:49:40.745Z,29.49
2019-02-01T16:52:07.094Z,29.91
2019-02-01T16:54:43.939Z,29.15
2019-02-01T16:56:59.805Z,29.66
2019-02-01T16:59:26.138Z,29.46
2019-02-01T17:01:52.529Z,29.34
2019-02-01T17:04:18.869Z,29.53
2019-02-01T17:06:45.211Z,29.70
2019-02-01T17:09:11.576Z,29.17
2019-02-01T17:11:37.903Z,29.54
2019-02-01T17:14:04.279Z,29.63
2019-02-01T17:16:30.616Z,29.44
2019-02-01T17:18:56.966Z,29.63
2019-02-01T17:21:23.332Z,29.47
2019-02-01T17:23:49.678Z,29.65
2019-02-01T17:26:16.033Z,29.60
2019-02-01T17:28:42.395Z,29.56
2019-02-01T17:31:11.555Z,29.50
2019-02-01T17:33:35.105Z,29.95
2019-02-01T17:36:01.440Z,29.75
2019-02-01T17:38:27.823Z,29.72
2019-02-01T17:40:54.165Z,29.92
2019-02-01T17:43:20.500Z,29.51
2019-02-01T17:45:46.827Z,29.67
2019-02-01T17:48:13.212Z,29.66
2019-02-01T17:50:39.500Z,29.66
2019-02-01T17:53:05.829Z,29.80
2019-02-01T17:55:32.174Z,29.44
2019-02-01T17:57:58.507Z,29.62
2019-02-01T18:00:24.835Z,29.36
2019-02-01T18:02:51.169Z,29.57
2019-02-01T18:05:17.587Z,29.59
2019-02-01T18:07:43.927Z,29.64
2019-02-01T18:10:10.257Z,29.64
2019-02-01T18:12:36.673Z,29.63
2019-02-01T18:15:03.002Z,29.64
2019-02-01T18:17:30.331Z,29.87
2019-02-01T18:19:55.743Z,29.98
2019-02-01T18:22:22.071Z,29.97
2019-02-01T18:24:48.527Z,30.11
2019-02-01T18:27:14.870Z,30.06
2019-02-01T18:29:41.207Z,30.27
2019-02-01T18:32:07.568Z,30.36
2019-02-01T18:34:33.926Z,30.20
2019-02-01T18:37:00.276Z,30.19
2019-02-01T18:39:26.606Z,30.11
2019-02-01T18:41:52.965Z,30.00
2019-02-01T18:44:19.301Z,30.16
2019-02-01T18:46:45.678Z,30.12
2019-02-01T18:49:12.016Z,30.19
2019-02-01T18:51:38.353Z,30.21
2019-02-01T18:54:05.721Z,30.32
2019-02-01T18:56:32.157Z,30.25
2019-02-01T18:58:58.590Z,30.32
2019-02-01T19:01:24.934Z,30.33
2019-02-01T19:03:51.275Z,30.40
2019-02-01T19:06:17.647Z,30.41
2019-02-01T19:08:44.013Z,30.50
2019-02-01T19:11:10.298Z,30.53
2019-02-01T19:13:36.719Z,30.50
2019-02-01T19:16:03.058Z,30.58
2019-02-01T19:18:29.393Z,30.61
2019-02-01T19:20:55.734Z,30.71
2019-02-01T19:23:22.075Z,30.69
2019-02-01T19:25:48.409Z,30.73
2019-02-01T19:28:14.776Z,30.72
2019-02-01T19:30:41.183Z,30.83
2019-02-01T19:33:07.546Z,30.85
2019-02-01T19:35:33.996Z,30.83
2019-02-01T19:38:00.401Z,30.93
2019-02-01T19:40:26.773Z,30.86
2019-02-01T19:42:53.139Z,30.77
2019-02-01T19:45:19.607Z,30.88
2019-02-01T19:47:45.970Z,30.93
2019-02-01T19:50:12.345Z,30.93
2019-02-01T19:52:38.711Z,30.89
2019-02-01T19:55:05.081Z,30.90
2019-02-01T19:57:31.555Z,31.05
2019-02-01T19:59:57.987Z,31.02
2019-02-01T20:02:24.420Z,30.96
2019-02-01T20:04:50.789Z,30.93
2019-02-01T20:07:17.155Z,31.02
2019-02-01T20:09:43.578Z,31.00
2019-02-01T20:12:09.942Z,31.02
2019-02-01T20:14:38.523Z,31.00
2019-02-01T20:17:02.676Z,31.10
2019-02-01T20:19:29.084Z,31.05
2019-02-01T20:21:55.470Z,31.10
2019-02-01T20:24:21.918Z,31.00
2019-02-01T20:26:48.277Z,31.15
2019-02-01T20:29:14.642Z,31.08
2019-02-01T20:31:41.009Z,31.06
2019-02-01T20:34:07.375Z,31.10
2019-02-01T20:36:33.749Z,31.14
2019-02-01T20:39:00.105Z,31.14
2019-02-01T20:41:26.466Z,31.14
2019-02-01T20:43:52.964Z,31.26
2019-02-01T20:46:19.332Z,31.14
2019-02-01T20:48:45.707Z,31.15
2019-02-01T20:51:12.077Z,31.22
2019-02-01T20:53:38.472Z,31.17
2019-02-01T20:56:04.848Z,31.26
2019-02-01T20:58:31.211Z,31.20
2019-02-01T21:00:57.566Z,31.34
2019-02-01T21:03:23.926Z,31.22
2019-02-01T21:05:50.288Z,31.41
2019-02-01T21:08:16.653Z,31.30
2019-02-01T21:10:43.069Z,31.29
2019-02-01T21:13:14.414Z,31.33
2019-02-01T21:15:35.912Z,31.43
2019-02-01T21:18:02.307Z,31.47
2019-02-01T21:20:28.710Z,31.32
2019-02-01T21:22:55.148Z,31.42
2019-02-01T21:25:21.615Z,31.48
2019-02-01T21:27:48.049Z,31.48
2019-02-01T21:30:14.407Z,31.49
2019-02-01T21:32:40.774Z,31.49
2019-02-01T21:35:07.270Z,31.58
2019-02-01T21:37:33.765Z,31.51
2019-02-01T21:40:00.187Z,31.58
2019-02-01T21:42:26.651Z,31.66
2019-02-01T21:44:53.026Z,31.54
2019-02-01T21:47:19.387Z,31.69
2019-02-01T21:49:45.778Z,31.62
2019-02-01T21:52:12.134Z,31.64
2019-02-01T21:54:38.601Z,31.64
2019-02-01T21:57:04.935Z,31.78
2019-02-01T21:59:31.289Z,31.83
2019-02-01T22:01:57.685Z,31.75
2019-02-01T22:04:24.072Z,31.79
2019-02-01T22:06:50.495Z,31.80
2019-02-01T22:09:16.861Z,31.86
2019-02-01T22:11:43.258Z,31.83
2019-02-01T22:14:09.762Z,31.98
2019-02-01T22:16:36.292Z,31.80
2019-02-01T22:19:02.656Z,31.90
2019-02-01T22:21:29.033Z,31.90
2019-02-01T22:23:55.461Z,31.93
2019-02-01T22:26:21.849Z,31.97
2019-02-01T22:28:48.225Z,31.97
2019-02-01T22:31:14.627Z,32.08
2019-02-01T22:33:40.986Z,32.13
2019-02-01T22:36:07.443Z,32.10
2019-02-01T22:38:33.760Z,32.16
2019-02-01T22:41:00.134Z,32.10
2019-02-01T22:43:26.482Z,32.15
2019-02-01T22:45:53.176Z,32.15
2019-02-01T22:48:19.544Z,32.11
2019-02-01T22:50:45.904Z,32.16
2019-02-01T22:53:20.473Z,32.16
2019-02-01T22:55:38.639Z,32.21
2019-02-01T22:58:06.414Z,32.11
2019-02-01T23:00:31.401Z,32.22
2019-02-01T23:02:57.791Z,32.19
2019-02-01T23:05:24.110Z,32.29
2019-02-01T23:07:53.502Z,32.24
2019-02-01T23:10:19.877Z,32.22
2019-02-01T23:12:46.211Z,32.40
2019-02-01T23:15:12.545Z,32.30
2019-02-01T23:17:47.996Z,32.36
2019-02-01T23:20:16.567Z,32.39
2019-02-01T23:22:44.239Z,32.42
2019-02-01T23:25:09.296Z,32.36
2019-02-01T23:27:35.651Z,32.46
2019-02-01T23:30:01.950Z,32.44
2019-02-01T23:32:28.323Z,32.55
2019-02-01T23:34:54.651Z,32.61
2019-02-01T23:37:23.533Z,32.59
2019-02-01T23:39:52.817Z,32.68
2019-02-01T23:42:21.603Z,32.74
2019-02-01T23:44:49.149Z,32.89
2019-02-01T23:47:15.542Z,33.01
2019-02-01T23:49:42.716Z,32.88
2019-02-01T23:52:09.110Z,32.87
2019-02-01T23:54:35.417Z,33.07
2019-02-01T23:57:01.771Z,33.08
2019-02-01T23:59:28.154Z,33.07
